Eldred, Minnesota
Current Conditions -  °F | °C
As of 2:34 PM on Monday 24 Nov 2014 (Local Time) from KCKN Reporting Station
Light Snow Light Snow  
Wind Chill: -3°   Ceiling: Unl
Heat Index: 16°   Visibility: 10mi
Dew Point: 10°   Wind: 26mph
Humidity: 79%   Direction: 350°N
Pressure: 29.83"   Gusts: 32mph
Location:  47.664°N, 96.7656°W
Report Text: KCKN 242034Z AUTO 35023G28KT 10SM -SN SCT012 M09/M12 A2983 RMK AO2
Loading
Personal Weather Stations






























Interactive Weather Map New forecast layout! Learn more

10-Day Weather Forecast

Advertisements
Track Severe Weather on mobile